sensor_id;sensor_type;location;lat;lon;timestamp;pressure;altitude;pressure_sealevel;temperature;humidity
41467;BME280;27205;53.690;19.948;2022-08-25T00:01:18;100577.50;;;20.52;91.34
41467;BME280;27205;53.690;19.948;2022-08-25T00:06:24;100573.59;;;20.51;91.23
41467;BME280;27205;53.690;19.948;2022-08-25T00:11:31;100579.77;;;20.55;91.46
41467;BME280;27205;53.690;19.948;2022-08-25T00:16:34;100587.30;;;20.59;91.70
41467;BME280;27205;53.690;19.948;2022-08-25T00:21:38;100582.42;;;20.59;92.02
41467;BME280;27205;53.690;19.948;2022-08-25T00:26:46;100571.90;;;20.57;92.93
41467;BME280;27205;53.690;19.948;2022-08-25T00:31:50;100555.48;;;20.49;94.76
41467;BME280;27205;53.690;19.948;2022-08-25T00:36:55;100536.49;;;20.41;95.91
41467;BME280;27205;53.690;19.948;2022-08-25T00:41:59;100529.09;;;20.33;95.25
41467;BME280;27205;53.690;19.948;2022-08-25T00:47:04;100527.81;;;20.28;95.64
41467;BME280;27205;53.690;19.948;2022-08-25T00:52:11;100528.73;;;20.26;95.52
41467;BME280;27205;53.690;19.948;2022-08-25T00:57:18;100519.02;;;20.22;95.74
41467;BME280;27205;53.690;19.948;2022-08-25T01:02:37;100519.70;;;20.20;95.52
41467;BME280;27205;53.690;19.948;2022-08-25T01:07:42;100522.70;;;20.18;95.34
41467;BME280;27205;53.690;19.948;2022-08-25T01:12:47;100513.97;;;20.11;96.03
41467;BME280;27205;53.690;19.948;2022-08-25T01:17:53;100509.61;;;20.09;96.21
41467;BME280;27205;53.690;19.948;2022-08-25T01:22:58;100498.27;;;20.11;96.98
41467;BME280;27205;53.690;19.948;2022-08-25T01:28:02;100494.77;;;20.16;97.75
41467;BME280;27205;53.690;19.948;2022-08-25T01:33:09;100490.38;;;20.18;98.25
41467;BME280;27205;53.690;19.948;2022-08-25T01:38:14;100486.98;;;20.20;99.20
41467;BME280;27205;53.690;19.948;2022-08-25T01:43:45;100488.77;;;20.22;98.38
41467;BME280;27205;53.690;19.948;2022-08-25T01:48:48;100493.10;;;20.24;98.14
41467;BME280;27205;53.690;19.948;2022-08-25T01:53:52;100495.33;;;20.25;98.55
41467;BME280;27205;53.690;19.948;2022-08-25T01:58:55;100491.05;;;20.27;98.33
41467;BME280;27205;53.690;19.948;2022-08-25T02:03:58;100482.04;;;20.28;99.26
41467;BME280;27205;53.690;19.948;2022-08-25T02:09:07;100480.61;;;20.29;98.52
41467;BME280;27205;53.690;19.948;2022-08-25T02:14:13;100475.27;;;20.31;99.19
41467;BME280;27205;53.690;19.948;2022-08-25T02:19:19;100467.64;;;20.29;99.79
41467;BME280;27205;53.690;19.948;2022-08-25T02:24:23;100469.55;;;20.30;99.34
41467;BME280;27205;53.690;19.948;2022-08-25T02:29:26;100466.48;;;20.28;99.14
41467;BME280;27205;53.690;19.948;2022-08-25T02:34:30;100468.22;;;20.27;99.17
41467;BME280;27205;53.690;19.948;2022-08-25T02:39:33;100464.31;;;20.24;99.77
41467;BME280;27205;53.690;19.948;2022-08-25T02:44:38;100458.60;;;20.22;99.37
41467;BME280;27205;53.690;19.948;2022-08-25T02:49:41;100450.39;;;20.23;99.62
41467;BME280;27205;53.690;19.948;2022-08-25T02:54:45;100453.60;;;20.18;99.52
41467;BME280;27205;53.690;19.948;2022-08-25T02:59:49;100450.17;;;20.15;99.35
41467;BME280;27205;53.690;19.948;2022-08-25T03:04:53;100446.29;;;20.13;99.85
41467;BME280;27205;53.690;19.948;2022-08-25T03:09:57;100438.61;;;20.12;99.95
41467;BME280;27205;53.690;19.948;2022-08-25T03:15:00;100433.16;;;20.13;99.77
41467;BME280;27205;53.690;19.948;2022-08-25T03:20:04;100432.63;;;20.11;99.98
41467;BME280;27205;53.690;19.948;2022-08-25T03:25:08;100426.74;;;20.08;99.95
41467;BME280;27205;53.690;19.948;2022-08-25T03:30:31;100425.06;;;20.07;99.88
41467;BME280;27205;53.690;19.948;2022-08-25T03:35:34;100424.36;;;20.05;100.00
41467;BME280;27205;53.690;19.948;2022-08-25T03:40:37;100424.83;;;20.01;99.95
41467;BME280;27205;53.690;19.948;2022-08-25T03:45:42;100427.34;;;20.00;100.00
41467;BME280;27205;53.690;19.948;2022-08-25T03:50:49;100428.59;;;20.01;100.00
41467;BME280;27205;53.690;19.948;2022-08-25T03:55:53;100432.10;;;20.00;100.00
41467;BME280;27205;53.690;19.948;2022-08-25T04:00:57;100430.90;;;20.04;100.00
41467;BME280;27205;53.690;19.948;2022-08-25T04:06:04;100433.98;;;20.12;100.00
41467;BME280;27205;53.690;19.948;2022-08-25T04:11:12;100436.09;;;20.19;100.00
41467;BME280;27205;53.690;19.948;2022-08-25T04:16:19;100438.55;;;20.29;100.00
41467;BME280;27205;53.690;19.948;2022-08-25T04:21:24;100436.23;;;20.34;100.00
41467;BME280;27205;53.690;19.948;2022-08-25T04:26:35;100430.53;;;20.45;100.00
41467;BME280;27205;53.690;19.948;2022-08-25T04:31:40;100428.02;;;20.55;100.00
41467;BME280;27205;53.690;19.948;2022-08-25T04:36:45;100429.29;;;20.64;100.00
41467;BME280;27205;53.690;19.948;2022-08-25T04:41:54;100428.42;;;20.72;100.00
41467;BME280;27205;53.690;19.948;2022-08-25T04:46:59;100429.83;;;20.85;100.00
41467;BME280;27205;53.690;19.948;2022-08-25T04:52:03;100428.12;;;21.02;100.00
41467;BME280;27205;53.690;19.948;2022-08-25T04:57:14;100433.17;;;21.16;100.00
41467;BME280;27205;53.690;19.948;2022-08-25T05:02:17;100446.61;;;21.27;100.00
41467;BME280;27205;53.690;19.948;2022-08-25T05:07:21;100468.66;;;21.38;100.00
41467;BME280;27205;53.690;19.948;2022-08-25T05:12:25;100476.13;;;21.40;100.00
41467;BME280;27205;53.690;19.948;2022-08-25T05:17:30;100486.52;;;21.47;100.00
41467;BME280;27205;53.690;19.948;2022-08-25T05:22:34;100500.16;;;21.52;100.00
41467;BME280;27205;53.690;19.948;2022-08-25T05:27:37;100500.91;;;21.52;100.00
41467;BME280;27205;53.690;19.948;2022-08-25T05:32:40;100501.30;;;21.38;100.00
41467;BME280;27205;53.690;19.948;2022-08-25T05:37:44;100504.73;;;21.26;100.00
41467;BME280;27205;53.690;19.948;2022-08-25T05:42:48;100518.00;;;21.25;100.00
41467;BME280;27205;53.690;19.948;2022-08-25T05:47:51;100520.48;;;21.29;99.95
41467;BME280;27205;53.690;19.948;2022-08-25T05:52:55;100526.00;;;21.21;99.85
41467;BME280;27205;53.690;19.948;2022-08-25T05:57:58;100516.19;;;21.08;100.00
41467;BME280;27205;53.690;19.948;2022-08-25T06:03:03;100516.84;;;21.05;100.00
41467;BME280;27205;53.690;19.948;2022-08-25T06:08:06;100518.61;;;20.97;100.00
41467;BME280;27205;53.690;19.948;2022-08-25T06:13:10;100513.29;;;20.95;100.00
41467;BME280;27205;53.690;19.948;2022-08-25T06:18:14;100521.30;;;20.74;100.00
41467;BME280;27205;53.690;19.948;2022-08-25T06:23:17;100498.09;;;20.18;100.00
41467;BME280;27205;53.690;19.948;2022-08-25T06:28:24;100483.01;;;20.29;100.00
41467;BME280;27205;53.690;19.948;2022-08-25T06:33:28;100473.84;;;20.03;100.00
41467;BME280;27205;53.690;19.948;2022-08-25T06:38:32;100460.02;;;19.79;100.00
41467;BME280;27205;53.690;19.948;2022-08-25T06:43:37;100457.56;;;19.81;100.00
41467;BME280;27205;53.690;19.948;2022-08-25T06:48:47;100462.39;;;19.88;100.00
41467;BME280;27205;53.690;19.948;2022-08-25T06:53:52;100460.17;;;19.99;100.00
41467;BME280;27205;53.690;19.948;2022-08-25T06:58:55;100464.46;;;20.09;100.00
41467;BME280;27205;53.690;19.948;2022-08-25T07:04:01;100473.80;;;20.11;100.00
41467;BME280;27205;53.690;19.948;2022-08-25T07:09:11;100480.54;;;20.14;100.00
41467;BME280;27205;53.690;19.948;2022-08-25T07:14:15;100479.86;;;20.15;100.00
41467;BME280;27205;53.690;19.948;2022-08-25T07:19:19;100477.88;;;20.15;100.00
41467;BME280;27205;53.690;19.948;2022-08-25T07:24:22;100478.44;;;20.11;100.00
41467;BME280;27205;53.690;19.948;2022-08-25T07:29:27;100477.76;;;20.13;100.00
41467;BME280;27205;53.690;19.948;2022-08-25T07:34:36;100473.58;;;20.19;100.00
41467;BME280;27205;53.690;19.948;2022-08-25T07:40:01;100474.23;;;20.31;100.00
41467;BME280;27205;53.690;19.948;2022-08-25T07:45:07;100476.75;;;20.33;100.00
41467;BME280;27205;53.690;19.948;2022-08-25T07:50:12;100481.21;;;20.34;100.00
41467;BME280;27205;53.690;19.948;2022-08-25T07:55:16;100483.89;;;20.40;100.00
41467;BME280;27205;53.690;19.948;2022-08-25T08:00:20;100483.86;;;20.43;100.00
41467;BME280;27205;53.690;19.948;2022-08-25T08:05:27;100491.31;;;20.51;100.00
41467;BME280;27205;53.690;19.948;2022-08-25T08:10:31;100500.52;;;20.61;100.00
41467;BME280;27205;53.690;19.948;2022-08-25T08:15:55;100495.55;;;20.83;100.00
41467;BME280;27205;53.690;19.948;2022-08-25T08:20:58;100498.27;;;21.10;100.00
41467;BME280;27205;53.690;19.948;2022-08-25T08:26:01;100505.65;;;21.23;100.00
41467;BME280;27205;53.690;19.948;2022-08-25T08:31:06;100511.91;;;21.27;100.00
41467;BME280;27205;53.690;19.948;2022-08-25T08:36:13;100509.45;;;21.37;100.00
41467;BME280;27205;53.690;19.948;2022-08-25T08:47:27;100504.11;;;21.34;100.00
41467;BME280;27205;53.690;19.948;2022-08-25T08:57:44;100504.34;;;21.56;100.00
41467;BME280;27205;53.690;19.948;2022-08-25T09:03:15;100498.09;;;21.65;100.00
41467;BME280;27205;53.690;19.948;2022-08-25T09:08:21;100491.66;;;21.72;100.00
41467;BME280;27205;53.690;19.948;2022-08-25T09:30:04;100473.88;;;22.27;100.00
41467;BME280;27205;53.690;19.948;2022-08-25T09:35:19;100475.70;;;22.47;100.00
41467;BME280;27205;53.690;19.948;2022-08-25T09:40:23;100471.55;;;22.48;100.00
41467;BME280;27205;53.690;19.948;2022-08-25T09:45:57;100468.06;;;22.63;100.00
41467;BME280;27205;53.690;19.948;2022-08-25T09:51:16;100465.17;;;22.72;100.00
41467;BME280;27205;53.690;19.948;2022-08-25T09:56:24;100464.99;;;22.86;100.00
41467;BME280;27205;53.690;19.948;2022-08-25T10:01:28;100457.98;;;22.83;100.00
41467;BME280;27205;53.690;19.948;2022-08-25T10:06:46;100447.89;;;23.02;100.00
41467;BME280;27205;53.690;19.948;2022-08-25T10:11:49;100446.36;;;23.15;100.00
41467;BME280;27205;53.690;19.948;2022-08-25T10:17:23;100442.00;;;23.24;100.00
41467;BME280;27205;53.690;19.948;2022-08-25T10:22:29;100433.27;;;23.31;100.00
41467;BME280;27205;53.690;19.948;2022-08-25T10:49:44;100410.49;;;24.52;100.00
41467;BME280;27205;53.690;19.948;2022-08-25T10:55:12;100405.66;;;24.94;100.00
41467;BME280;27205;53.690;19.948;2022-08-25T11:00:22;100399.80;;;25.18;100.00
41467;BME280;27205;53.690;19.948;2022-08-25T11:26:50;100410.37;;;26.21;100.00
41467;BME280;27205;53.690;19.948;2022-08-25T11:31:58;100408.98;;;26.11;100.00
41467;BME280;27205;53.690;19.948;2022-08-25T11:37:13;100400.91;;;26.24;100.00
41467;BME280;27205;53.690;19.948;2022-08-25T11:53:23;100391.89;;;27.07;100.00
41467;BME280;27205;53.690;19.948;2022-08-25T12:03:45;100397.57;;;27.28;100.00
41467;BME280;27205;53.690;19.948;2022-08-25T12:30:19;100384.48;;;27.50;100.00
41467;BME280;27205;53.690;19.948;2022-08-25T12:35:57;100374.06;;;27.75;100.00
41467;BME280;27205;53.690;19.948;2022-08-25T12:41:12;100370.42;;;28.18;100.00
41467;BME280;27205;53.690;19.948;2022-08-25T12:56:41;100376.78;;;29.42;100.00
41467;BME280;27205;53.690;19.948;2022-08-25T13:12:23;100368.54;;;29.80;90.19
41467;BME280;27205;53.690;19.948;2022-08-25T13:17:34;100365.81;;;29.69;88.40
41467;BME280;27205;53.690;19.948;2022-08-25T13:22:39;100361.37;;;29.86;94.30
41467;BME280;27205;53.690;19.948;2022-08-25T13:27:47;100363.15;;;29.94;92.96
41467;BME280;27205;53.690;19.948;2022-08-25T13:32:53;100357.46;;;29.98;91.91
41467;BME280;27205;53.690;19.948;2022-08-25T13:38:23;100354.00;;;30.12;95.59
41467;BME280;27205;53.690;19.948;2022-08-25T13:43:28;100347.02;;;30.06;89.79
41467;BME280;27205;53.690;19.948;2022-08-25T13:53:37;100342.52;;;30.23;89.37
41467;BME280;27205;53.690;19.948;2022-08-25T13:58:41;100338.58;;;30.59;94.45
41467;BME280;27205;53.690;19.948;2022-08-25T14:03:48;100333.36;;;30.96;93.04
41467;BME280;27205;53.690;19.948;2022-08-25T14:19:20;100318.98;;;31.28;87.48
41467;BME280;27205;53.690;19.948;2022-08-25T14:24:25;100320.27;;;31.43;90.46
41467;BME280;27205;53.690;19.948;2022-08-25T14:29:29;100316.36;;;31.57;90.21
41467;BME280;27205;53.690;19.948;2022-08-25T14:34:37;100311.86;;;31.68;91.18
41467;BME280;27205;53.690;19.948;2022-08-25T14:39:44;100317.20;;;31.67;90.34
41467;BME280;27205;53.690;19.948;2022-08-25T14:44:48;100311.43;;;31.82;94.55
41467;BME280;27205;53.690;19.948;2022-08-25T14:49:52;100312.52;;;31.85;91.64
41467;BME280;27205;53.690;19.948;2022-08-25T14:54:56;100308.67;;;32.16;92.38
41467;BME280;27205;53.690;19.948;2022-08-25T14:59:59;100309.96;;;34.78;89.63
41467;BME280;27205;53.690;19.948;2022-08-25T15:05:05;100310.06;;;39.28;80.83
41467;BME280;27205;53.690;19.948;2022-08-25T15:10:10;100310.29;;;41.89;75.05
41467;BME280;27205;53.690;19.948;2022-08-25T15:15:15;100307.28;;;44.42;67.99
41467;BME280;27205;53.690;19.948;2022-08-25T15:20:21;100301.52;;;46.02;66.05
41467;BME280;27205;53.690;19.948;2022-08-25T15:25:26;100299.12;;;47.46;62.29
41467;BME280;27205;53.690;19.948;2022-08-25T15:30:31;100299.34;;;48.43;59.86
41467;BME280;27205;53.690;19.948;2022-08-25T15:35:36;100294.59;;;49.16;56.21
41467;BME280;27205;53.690;19.948;2022-08-25T15:40:39;100293.09;;;48.45;47.50
41467;BME280;27205;53.690;19.948;2022-08-25T15:45:42;100284.27;;;47.94;44.05
41467;BME280;27205;53.690;19.948;2022-08-25T15:50:52;100279.73;;;47.48;42.64
41467;BME280;27205;53.690;19.948;2022-08-25T15:55:57;100278.71;;;46.88;41.57
41467;BME280;27205;53.690;19.948;2022-08-25T16:01:12;100268.07;;;46.69;39.48
41467;BME280;27205;53.690;19.948;2022-08-25T16:06:16;100272.42;;;45.99;37.94
41467;BME280;27205;53.690;19.948;2022-08-25T16:11:23;100264.20;;;45.08;36.72
41467;BME280;27205;53.690;19.948;2022-08-25T16:16:29;100250.85;;;43.52;34.38
41467;BME280;27205;53.690;19.948;2022-08-25T16:21:34;100241.44;;;42.23;35.41
41467;BME280;27205;53.690;19.948;2022-08-25T16:26:49;100237.98;;;40.96;35.84
41467;BME280;27205;53.690;19.948;2022-08-25T16:31:53;100231.54;;;40.09;36.84
41467;BME280;27205;53.690;19.948;2022-08-25T16:36:58;100224.83;;;38.97;37.74
41467;BME280;27205;53.690;19.948;2022-08-25T16:42:02;100220.61;;;37.84;39.00
41467;BME280;27205;53.690;19.948;2022-08-25T16:47:06;100220.81;;;36.69;40.35
41467;BME280;27205;53.690;19.948;2022-08-25T16:52:11;100219.81;;;35.83;42.13
41467;BME280;27205;53.690;19.948;2022-08-25T16:57:33;100221.21;;;35.10;43.42
41467;BME280;27205;53.690;19.948;2022-08-25T17:02:37;100221.92;;;34.36;44.76
41467;BME280;27205;53.690;19.948;2022-08-25T17:07:41;100220.31;;;33.50;46.06
41467;BME280;27205;53.690;19.948;2022-08-25T17:12:44;100220.28;;;32.50;48.13
41467;BME280;27205;53.690;19.948;2022-08-25T17:17:47;100216.63;;;31.48;50.62
41467;BME280;27205;53.690;19.948;2022-08-25T17:22:51;100217.35;;;30.50;52.51
41467;BME280;27205;53.690;19.948;2022-08-25T17:27:55;100217.71;;;29.70;53.69
41467;BME280;27205;53.690;19.948;2022-08-25T17:32:58;100221.41;;;28.92;56.68
41467;BME280;27205;53.690;19.948;2022-08-25T17:38:02;100219.05;;;28.13;58.08
41467;BME280;27205;53.690;19.948;2022-08-25T17:43:08;100223.70;;;27.47;60.31
41467;BME280;27205;53.690;19.948;2022-08-25T17:48:12;100222.10;;;26.90;62.37
41467;BME280;27205;53.690;19.948;2022-08-25T17:53:16;100219.89;;;26.41;64.87
41467;BME280;27205;53.690;19.948;2022-08-25T17:58:20;100222.70;;;26.08;65.64
41467;BME280;27205;53.690;19.948;2022-08-25T18:03:26;100226.23;;;25.77;66.50
41467;BME280;27205;53.690;19.948;2022-08-25T18:08:29;100231.20;;;25.55;67.52
41467;BME280;27205;53.690;19.948;2022-08-25T18:13:37;100230.57;;;25.33;67.63
41467;BME280;27205;53.690;19.948;2022-08-25T18:18:40;100232.89;;;25.13;69.17
41467;BME280;27205;53.690;19.948;2022-08-25T18:23:44;100232.67;;;24.99;70.24
41467;BME280;27205;53.690;19.948;2022-08-25T18:28:48;100230.15;;;24.84;71.28
41467;BME280;27205;53.690;19.948;2022-08-25T18:33:52;100231.25;;;24.71;72.43
41467;BME280;27205;53.690;19.948;2022-08-25T18:38:55;100233.52;;;24.60;73.17
41467;BME280;27205;53.690;19.948;2022-08-25T18:44:18;100237.44;;;24.47;75.66
41467;BME280;27205;53.690;19.948;2022-08-25T18:49:22;100234.30;;;24.32;75.08
41467;BME280;27205;53.690;19.948;2022-08-25T18:54:30;100232.79;;;24.22;76.33
41467;BME280;27205;53.690;19.948;2022-08-25T18:59:37;100232.92;;;24.14;76.88
41467;BME280;27205;53.690;19.948;2022-08-25T19:04:40;100225.05;;;24.02;76.19
41467;BME280;27205;53.690;19.948;2022-08-25T19:09:44;100227.92;;;23.93;76.71
41467;BME280;27205;53.690;19.948;2022-08-25T19:14:48;100225.27;;;23.87;76.85
41467;BME280;27205;53.690;19.948;2022-08-25T19:19:51;100226.65;;;23.79;77.07
41467;BME280;27205;53.690;19.948;2022-08-25T19:24:54;100224.51;;;23.72;77.75
41467;BME280;27205;53.690;19.948;2022-08-25T19:29:57;100228.35;;;23.68;77.17
41467;BME280;27205;53.690;19.948;2022-08-25T19:35:01;100230.49;;;23.63;78.23
41467;BME280;27205;53.690;19.948;2022-08-25T19:40:08;100229.17;;;23.57;78.66
41467;BME280;27205;53.690;19.948;2022-08-25T19:45:13;100226.16;;;23.55;78.52
41467;BME280;27205;53.690;19.948;2022-08-25T19:50:17;100224.79;;;23.51;78.99
41467;BME280;27205;53.690;19.948;2022-08-25T19:55:20;100223.90;;;23.48;79.45
41467;BME280;27205;53.690;19.948;2022-08-25T20:00:27;100217.81;;;23.46;79.25
41467;BME280;27205;53.690;19.948;2022-08-25T20:05:33;100217.33;;;23.40;79.95
41467;BME280;27205;53.690;19.948;2022-08-25T20:10:37;100216.80;;;23.27;79.97
41467;BME280;27205;53.690;19.948;2022-08-25T20:15:43;100217.07;;;23.22;80.06
41467;BME280;27205;53.690;19.948;2022-08-25T20:20:48;100213.55;;;23.17;80.92
41467;BME280;27205;53.690;19.948;2022-08-25T20:25:52;100215.41;;;23.15;80.92
41467;BME280;27205;53.690;19.948;2022-08-25T20:30:57;100215.05;;;23.18;80.95
41467;BME280;27205;53.690;19.948;2022-08-25T20:36:02;100211.41;;;23.08;81.59
41467;BME280;27205;53.690;19.948;2022-08-25T20:41:11;100213.77;;;23.05;81.80
41467;BME280;27205;53.690;19.948;2022-08-25T20:46:15;100218.27;;;23.05;82.21
41467;BME280;27205;53.690;19.948;2022-08-25T20:51:18;100215.95;;;23.08;82.18
41467;BME280;27205;53.690;19.948;2022-08-25T20:56:25;100219.69;;;23.06;82.46
41467;BME280;27205;53.690;19.948;2022-08-25T21:01:31;100221.13;;;23.08;82.68
41467;BME280;27205;53.690;19.948;2022-08-25T21:06:43;100221.24;;;23.11;82.89
41467;BME280;27205;53.690;19.948;2022-08-25T21:11:50;100223.30;;;23.09;83.08
41467;BME280;27205;53.690;19.948;2022-08-25T21:16:56;100219.35;;;23.02;83.51
41467;BME280;27205;53.690;19.948;2022-08-25T21:22:00;100220.08;;;22.95;83.80
41467;BME280;27205;53.690;19.948;2022-08-25T21:27:04;100222.25;;;22.88;83.91
41467;BME280;27205;53.690;19.948;2022-08-25T21:32:07;100216.67;;;22.80;84.29
41467;BME280;27205;53.690;19.948;2022-08-25T21:37:11;100214.73;;;22.68;84.78
41467;BME280;27205;53.690;19.948;2022-08-25T21:42:14;100212.31;;;22.56;85.22
41467;BME280;27205;53.690;19.948;2022-08-25T21:47:18;100213.52;;;22.50;85.38
41467;BME280;27205;53.690;19.948;2022-08-25T21:52:23;100210.92;;;22.43;85.47
41467;BME280;27205;53.690;19.948;2022-08-25T21:57:27;100211.35;;;22.40;85.71
41467;BME280;27205;53.690;19.948;2022-08-25T22:02:30;100206.02;;;22.39;85.87
41467;BME280;27205;53.690;19.948;2022-08-25T22:07:34;100201.67;;;22.31;86.38
41467;BME280;27205;53.690;19.948;2022-08-25T22:12:46;100199.64;;;22.24;87.11
41467;BME280;27205;53.690;19.948;2022-08-25T22:17:50;100199.93;;;22.11;87.17
41467;BME280;27205;53.690;19.948;2022-08-25T22:22:53;100197.01;;;22.02;87.40
41467;BME280;27205;53.690;19.948;2022-08-25T22:27:56;100195.53;;;22.00;87.41
41467;BME280;27205;53.690;19.948;2022-08-25T22:33:01;100190.77;;;21.96;87.73
41467;BME280;27205;53.690;19.948;2022-08-25T22:38:04;100183.02;;;21.91;87.62
41467;BME280;27205;53.690;19.948;2022-08-25T22:43:14;100178.66;;;21.85;87.91
41467;BME280;27205;53.690;19.948;2022-08-25T22:48:17;100176.27;;;21.84;87.66
41467;BME280;27205;53.690;19.948;2022-08-25T22:53:20;100170.88;;;21.77;87.96
41467;BME280;27205;53.690;19.948;2022-08-25T22:58:24;100162.89;;;21.71;88.21
41467;BME280;27205;53.690;19.948;2022-08-25T23:03:27;100158.46;;;21.64;88.69
41467;BME280;27205;53.690;19.948;2022-08-25T23:08:31;100153.90;;;21.58;88.89
41467;BME280;27205;53.690;19.948;2022-08-25T23:13:43;100145.08;;;21.52;89.05
41467;BME280;27205;53.690;19.948;2022-08-25T23:18:47;100144.37;;;21.49;89.38
41467;BME280;27205;53.690;19.948;2022-08-25T23:23:50;100140.56;;;21.43;89.55
41467;BME280;27205;53.690;19.948;2022-08-25T23:28:54;100140.77;;;21.40;89.65
41467;BME280;27205;53.690;19.948;2022-08-25T23:33:58;100135.95;;;21.36;89.90
41467;BME280;27205;53.690;19.948;2022-08-25T23:39:04;100133.56;;;21.33;90.21
41467;BME280;27205;53.690;19.948;2022-08-25T23:44:09;100139.03;;;21.24;90.77
41467;BME280;27205;53.690;19.948;2022-08-25T23:49:21;100134.10;;;21.21;91.04
41467;BME280;27205;53.690;19.948;2022-08-25T23:54:25;100129.59;;;21.25;91.05
41467;BME280;27205;53.690;19.948;2022-08-25T23:59:33;100126.89;;;21.21;91.25
